Time;durP1;ratioP1;P1;durP2;ratioP2;P2;SDS_P1;SDS_P2;PMS_P1;PMS_P2;Temp;Humidity;BMP_temperature;BMP_pressure;BME280_temperature;BME280_humidity;BME280_pressure;Samples;Min_cycle;Max_cycle;Signal;HPM_P1;HPM_P2
2021/09/18 00:00:47;;;;;;;15.45;13.65;;;13.90;93.10;;;;;;5076953;28;20443;-69
2021/09/18 00:03:14;;;;;;;17.67;14.85;;;13.90;93.00;;;;;;5058379;28;20060;-69
2021/09/18 00:05:41;;;;;;;16.60;14.82;;;13.90;93.10;;;;;;5061306;28;20051;-69
2021/09/18 00:08:08;;;;;;;16.15;14.45;;;13.80;93.10;;;;;;5057340;28;20056;-70
2021/09/18 00:10:35;;;;;;;19.83;15.82;;;13.80;93.10;;;;;;5067977;28;20044;-72
2021/09/18 00:13:02;;;;;;;21.90;16.10;;;13.80;93.30;;;;;;5060168;28;20044;-66
2021/09/18 00:15:30;;;;;;;281.48;227.38;;;13.80;93.80;;;;;;5069339;28;20047;-67
2021/09/18 00:18:00;;;;;;;56.45;48.30;;;13.90;94.40;;;;;;5069889;28;20044;-68
2021/09/18 00:20:27;;;;;;;28.67;25.67;;;13.90;93.90;;;;;;5059700;28;20411;-69
2021/09/18 00:22:54;;;;;;;20.90;18.67;;;13.90;94.10;;;;;;5070155;28;20041;-67
2021/09/18 00:25:21;;;;;;;19.60;17.40;;;13.90;93.50;;;;;;5060167;28;20079;-69
2021/09/18 00:27:48;;;;;;;19.88;16.98;;;13.80;93.60;;;;;;5055238;28;20097;-67
2021/09/18 00:30:15;;;;;;;21.42;15.50;;;13.80;93.70;;;;;;5070274;28;20060;-66
2021/09/18 00:32:42;;;;;;;23.77;20.73;;;13.80;93.30;;;;;;5070153;28;20045;-69
2021/09/18 00:35:09;;;;;;;20.13;18.02;;;13.80;93.40;;;;;;5069183;28;21047;-68
2021/09/18 00:37:36;;;;;;;21.23;16.10;;;13.70;93.20;;;;;;5056921;28;20400;-69
2021/09/18 00:40:04;;;;;;;17.55;15.68;;;13.70;93.30;;;;;;5069261;28;20045;-67
2021/09/18 00:42:31;;;;;;;21.65;14.40;;;13.70;93.20;;;;;;5054473;28;20059;-69
2021/09/18 00:44:59;;;;;;;19.33;15.45;;;13.60;93.20;;;;;;5073973;28;20040;-69
2021/09/18 00:47:26;;;;;;;18.13;16.05;;;13.60;93.20;;;;;;5069867;28;20075;-69
2021/09/18 00:49:53;;;;;;;18.38;15.00;;;13.50;93.20;;;;;;5070328;28;20070;-69
2021/09/18 00:52:20;;;;;;;18.92;14.93;;;13.50;93.20;;;;;;5074452;28;20048;-69
2021/09/18 00:54:47;;;;;;;16.83;14.77;;;13.40;93.20;;;;;;5068654;28;20058;-69
2021/09/18 00:57:15;;;;;;;18.13;15.95;;;13.40;93.30;;;;;;5078449;28;20104;-69
2021/09/18 00:59:42;;;;;;;17.23;15.10;;;13.40;93.70;;;;;;5073745;28;20051;-69
2021/09/18 01:02:10;;;;;;;18.70;15.10;;;13.40;93.60;;;;;;5043704;28;20059;-69
2021/09/18 01:04:37;;;;;;;17.90;15.57;;;13.30;93.50;;;;;;5072689;28;20043;-69
2021/09/18 01:07:04;;;;;;;22.15;16.73;;;13.30;93.40;;;;;;5059601;28;20048;-69
2021/09/18 01:09:31;;;;;;;19.73;16.85;;;13.30;93.50;;;;;;5055713;28;20109;-69
2021/09/18 01:11:59;;;;;;;17.13;14.95;;;13.30;93.40;;;;;;5055680;28;20037;-69
2021/09/18 01:14:26;;;;;;;21.38;17.40;;;13.30;93.40;;;;;;5068578;28;20562;-69
2021/09/18 01:16:53;;;;;;;19.17;15.55;;;13.20;93.70;;;;;;5047116;28;20049;-69
2021/09/18 01:19:20;;;;;;;19.58;15.70;;;13.20;93.50;;;;;;5071372;28;20055;-69
2021/09/18 01:21:48;;;;;;;16.98;13.70;;;13.20;93.80;;;;;;5066586;28;20045;-69
2021/09/18 01:24:16;;;;;;;18.90;14.75;;;13.20;93.70;;;;;;5070641;28;20049;-69
2021/09/18 01:26:43;;;;;;;17.85;14.77;;;13.20;93.50;;;;;;5055322;28;20075;-69
2021/09/18 01:29:10;;;;;;;20.17;16.77;;;13.20;93.60;;;;;;5056830;28;20048;-69
2021/09/18 01:31:41;;;;;;;20.58;16.98;;;13.20;93.80;;;;;;5041427;28;20101;-69
2021/09/18 01:34:16;;;;;;;16.80;14.50;;;13.30;93.90;;;;;;5072279;28;20098;-69
2021/09/18 01:36:45;;;;;;;22.50;16.65;;;13.30;93.90;;;;;;5056530;28;20423;-69
2021/09/18 01:39:13;;;;;;;23.20;15.80;;;13.40;94.30;;;;;;5041025;28;20068;-69
2021/09/18 01:41:41;;;;;;;19.98;16.90;;;13.50;94.20;;;;;;5061582;28;20131;-69
2021/09/18 01:44:08;;;;;;;20.00;16.48;;;13.60;94.20;;;;;;5078123;28;20084;-69
2021/09/18 01:46:35;;;;;;;18.10;16.02;;;13.60;94.70;;;;;;5074299;28;20072;-69
2021/09/18 01:49:02;;;;;;;20.95;18.75;;;13.70;94.10;;;;;;5081530;28;20113;-69
2021/09/18 01:51:32;;;;;;;22.52;17.00;;;13.80;94.30;;;;;;5071547;28;20471;-69
2021/09/18 01:54:04;;;;;;;21.02;16.77;;;13.80;94.20;;;;;;5068626;28;20056;-69
2021/09/18 01:56:31;;;;;;;20.42;18.23;;;13.90;94.10;;;;;;5059447;28;20307;-69
2021/09/18 01:58:58;;;;;;;26.48;19.48;;;13.90;94.10;;;;;;5058236;28;20083;-69
2021/09/18 02:01:25;;;;;;;22.58;18.58;;;13.90;94.20;;;;;;5059031;28;20056;-69
2021/09/18 02:03:53;;;;;;;21.85;16.75;;;14.00;94.20;;;;;;5074470;28;20050;-69
2021/09/18 02:06:23;;;;;;;18.75;16.75;;;14.00;94.10;;;;;;5076301;28;20048;-69
2021/09/18 02:08:50;;;;;;;19.63;17.02;;;14.10;94.00;;;;;;5063749;28;20395;-69
2021/09/18 02:11:30;;;;;;;20.10;16.77;;;14.10;94.00;;;;;;5071524;28;20498;-69
2021/09/18 02:13:57;;;;;;;23.40;18.85;;;14.10;93.90;;;;;;5060482;28;20045;-68
2021/09/18 02:16:25;;;;;;;19.95;17.13;;;14.10;93.90;;;;;;5079220;28;20048;-69
2021/09/18 02:18:52;;;;;;;21.50;18.00;;;14.10;93.80;;;;;;5052861;28;20053;-69
2021/09/18 02:21:28;;;;;;;22.65;18.40;;;14.10;93.80;;;;;;5060947;28;20110;-68
2021/09/18 02:24:14;;;;;;;20.92;18.13;;;14.10;94.10;;;;;;5058544;28;20055;-69
2021/09/18 02:26:41;;;;;;;20.98;18.45;;;14.10;94.50;;;;;;5081214;28;20059;-69
2021/09/18 02:29:08;;;;;;;20.60;18.15;;;14.10;94.10;;;;;;5072680;28;20106;-69
2021/09/18 02:31:45;;;;;;;18.95;16.35;;;14.10;94.30;;;;;;5074967;28;20049;-69
2021/09/18 02:34:15;;;;;;;24.98;18.42;;;14.20;94.10;;;;;;5070318;28;20040;-69
2021/09/18 02:36:46;;;;;;;20.85;18.65;;;14.20;94.00;;;;;;5073408;28;20159;-70
2021/09/18 02:39:13;;;;;;;19.80;17.70;;;14.30;94.00;;;;;;5063986;28;20044;-69
2021/09/18 02:41:46;;;;;;;23.02;18.10;;;14.30;94.40;;;;;;5042165;28;20090;-69
2021/09/18 02:44:13;;;;;;;22.02;18.48;;;14.40;94.30;;;;;;5075627;28;20496;-69
2021/09/18 02:46:44;;;;;;;20.52;17.48;;;14.40;94.10;;;;;;5064874;28;20101;-69
2021/09/18 02:49:13;;;;;;;26.38;18.85;;;14.40;94.30;;;;;;5053936;28;20180;-69
2021/09/18 02:51:40;;;;;;;24.30;19.73;;;14.40;94.00;;;;;;5056101;28;20044;-69
2021/09/18 02:54:07;;;;;;;21.38;18.48;;;14.40;94.30;;;;;;5055228;28;20106;-69
2021/09/18 02:56:34;;;;;;;24.00;20.95;;;14.40;94.30;;;;;;5072128;28;20045;-69
2021/09/18 02:59:01;;;;;;;26.38;22.55;;;14.40;94.30;;;;;;5041064;28;20489;-69
2021/09/18 03:01:28;;;;;;;24.92;21.83;;;14.50;94.20;;;;;;5077041;28;20109;-69
2021/09/18 03:03:55;;;;;;;25.02;21.30;;;14.50;94.10;;;;;;5073322;28;20095;-69
2021/09/18 03:06:26;;;;;;;27.52;21.45;;;14.50;94.20;;;;;;5074188;28;20047;-69
2021/09/18 03:08:55;;;;;;;25.63;20.75;;;14.50;94.00;;;;;;5062496;28;20044;-69
2021/09/18 03:11:23;;;;;;;25.85;20.85;;;14.50;94.00;;;;;;5063003;28;20098;-69
2021/09/18 03:13:50;;;;;;;28.13;24.05;;;14.60;94.40;;;;;;5061182;28;20381;-69
2021/09/18 03:16:17;;;;;;;35.90;27.83;;;14.50;94.40;;;;;;5083051;28;20135;-69
2021/09/18 03:18:44;;;;;;;34.75;26.90;;;14.60;94.80;;;;;;5036099;28;20435;-69
2021/09/18 03:21:12;;;;;;;28.48;23.05;;;14.60;94.30;;;;;;5059953;28;20098;-69
2021/09/18 03:23:40;;;;;;;24.00;20.55;;;14.60;94.30;;;;;;5063211;28;20142;-69
2021/09/18 03:26:07;;;;;;;26.92;22.10;;;14.60;94.00;;;;;;5076196;28;20043;-69
2021/09/18 03:28:34;;;;;;;24.40;20.67;;;14.60;94.00;;;;;;5073030;28;20159;-68
2021/09/18 03:31:01;;;;;;;24.83;20.70;;;14.50;94.00;;;;;;5071774;28;20059;-69
2021/09/18 03:33:28;;;;;;;29.88;24.55;;;14.50;94.00;;;;;;5047237;28;20052;-68
2021/09/18 03:35:56;;;;;;;42.58;36.30;;;14.50;94.30;;;;;;5076647;28;20080;-66
2021/09/18 03:38:23;;;;;;;64.00;52.78;;;14.50;94.20;;;;;;5047153;28;20048;-69
2021/09/18 03:40:50;;;;;;;33.17;28.05;;;14.50;94.30;;;;;;5039313;28;20052;-68
2021/09/18 03:43:18;;;;;;;27.70;23.98;;;14.60;94.20;;;;;;5073761;28;20040;-69
2021/09/18 03:45:46;;;;;;;31.20;25.92;;;14.50;94.30;;;;;;5063883;28;20059;-68
2021/09/18 03:48:14;;;;;;;31.55;25.35;;;14.60;94.30;;;;;;5075360;28;20141;-69
2021/09/18 03:50:41;;;;;;;29.88;25.67;;;14.60;94.50;;;;;;5054007;28;20053;-69
2021/09/18 03:53:09;;;;;;;35.30;29.67;;;14.50;94.50;;;;;;5068225;28;20087;-69
2021/09/18 03:55:36;;;;;;;34.83;27.15;;;14.50;94.90;;;;;;5072302;28;20055;-69
2021/09/18 03:58:03;;;;;;;37.78;29.02;;;14.50;94.90;;;;;;5057190;28;20059;-69
2021/09/18 04:00:30;;;;;;;34.92;27.50;;;14.60;95.00;;;;;;5070478;28;20049;-69
2021/09/18 04:02:57;;;;;;;41.38;29.00;;;14.60;95.00;;;;;;5073325;28;20115;-69
2021/09/18 04:05:24;;;;;;;32.85;27.33;;;14.60;95.00;;;;;;5061132;28;20124;-69
2021/09/18 04:07:51;;;;;;;37.45;28.58;;;14.50;94.80;;;;;;5056500;28;20484;-69
2021/09/18 04:10:18;;;;;;;37.60;28.13;;;14.50;95.10;;;;;;5056792;28;20102;-69
2021/09/18 04:12:45;;;;;;;39.90;30.58;;;14.50;95.00;;;;;;5067973;28;20048;-69
2021/09/18 04:15:12;;;;;;;35.60;27.40;;;14.50;94.90;;;;;;5069705;28;20056;-69
2021/09/18 04:17:45;;;;;;;39.13;28.88;;;14.50;94.70;;;;;;5073356;28;20037;-69
2021/09/18 04:20:12;;;;;;;39.22;30.35;;;14.50;94.90;;;;;;5059259;28;20118;-69
2021/09/18 04:22:39;;;;;;;39.03;30.42;;;14.40;94.70;;;;;;5057579;28;20044;-69
2021/09/18 04:25:07;;;;;;;39.58;32.28;;;14.40;94.70;;;;;;5059478;28;20051;-68
2021/09/18 04:27:35;;;;;;;44.83;31.83;;;14.40;94.80;;;;;;5064464;28;20085;-68
2021/09/18 04:30:02;;;;;;;47.65;35.03;;;14.40;94.70;;;;;;5076095;28;20442;-68
2021/09/18 04:32:29;;;;;;;41.05;32.53;;;14.30;94.80;;;;;;5061596;28;20492;-68
2021/09/18 04:34:56;;;;;;;46.50;35.15;;;14.30;95.00;;;;;;5040666;28;20063;-68
2021/09/18 04:37:23;;;;;;;44.13;33.95;;;14.30;95.10;;;;;;5069259;28;20048;-68
2021/09/18 04:39:50;;;;;;;52.72;34.97;;;14.20;94.90;;;;;;5061093;28;20091;-68
2021/09/18 04:42:18;;;;;;;45.30;34.15;;;14.20;94.80;;;;;;5067828;28;20510;-69
2021/09/18 04:44:45;;;;;;;38.92;31.00;;;14.20;94.80;;;;;;5056629;28;20052;-68
2021/09/18 04:47:12;;;;;;;42.70;31.80;;;14.20;94.80;;;;;;5052977;28;20044;-68
2021/09/18 04:49:39;;;;;;;41.25;32.63;;;14.20;94.90;;;;;;5068101;28;20045;-68
2021/09/18 04:52:09;;;;;;;42.65;32.42;;;14.20;94.70;;;;;;5060347;28;20223;-68
2021/09/18 04:54:36;;;;;;;42.45;32.70;;;14.20;94.80;;;;;;5050322;28;20044;-68
2021/09/18 04:57:03;;;;;;;40.00;33.55;;;14.20;94.90;;;;;;5057266;28;20040;-69
2021/09/18 04:59:30;;;;;;;45.35;32.85;;;14.20;94.90;;;;;;5073164;28;20439;-69
2021/09/18 05:01:57;;;;;;;43.28;32.90;;;14.10;95.00;;;;;;5069739;28;20127;-69
2021/09/18 05:04:24;;;;;;;42.60;31.73;;;14.20;94.90;;;;;;5076894;28;20135;-69
2021/09/18 05:06:51;;;;;;;39.22;31.13;;;14.20;94.80;;;;;;5074704;28;20041;-69
2021/09/18 05:09:18;;;;;;;41.45;32.80;;;14.20;94.80;;;;;;5062023;28;20395;-69
2021/09/18 05:11:45;;;;;;;43.67;32.38;;;14.20;95.00;;;;;;5071870;28;20072;-69
2021/09/18 05:14:13;;;;;;;39.67;31.95;;;14.20;94.90;;;;;;5070819;28;20052;-69
2021/09/18 05:16:40;;;;;;;40.03;31.58;;;14.10;94.70;;;;;;5058408;28;20048;-70
2021/09/18 05:19:07;;;;;;;39.08;31.77;;;14.10;94.70;;;;;;5055858;28;20040;-68
2021/09/18 05:21:34;;;;;;;38.70;31.50;;;14.10;94.80;;;;;;5054182;28;20101;-69
2021/09/18 05:24:01;;;;;;;40.42;30.17;;;14.10;94.70;;;;;;5071026;28;20451;-69
2021/09/18 05:26:28;;;;;;;42.45;33.65;;;14.00;94.70;;;;;;5072837;28;20079;-69
2021/09/18 05:28:55;;;;;;;39.45;29.40;;;14.00;94.90;;;;;;5069814;28;20159;-70
2021/09/18 05:31:22;;;;;;;36.55;30.23;;;14.00;94.70;;;;;;5063244;28;20068;-70
2021/09/18 05:33:49;;;;;;;40.40;31.25;;;13.90;94.70;;;;;;5077376;28;20537;-68
2021/09/18 05:36:17;;;;;;;42.13;31.83;;;13.90;94.60;;;;;;5071248;28;20516;-69
2021/09/18 05:38:44;;;;;;;40.60;32.22;;;13.90;94.90;;;;;;5080950;28;20200;-68
2021/09/18 05:41:11;;;;;;;40.72;31.88;;;13.80;94.70;;;;;;5040797;28;20086;-68
2021/09/18 05:43:38;;;;;;;40.33;31.05;;;13.80;94.90;;;;;;5047772;28;20124;-68
2021/09/18 05:46:05;;;;;;;42.92;31.70;;;13.70;94.80;;;;;;5074747;28;20055;-68
2021/09/18 05:48:32;;;;;;;44.08;33.45;;;13.70;94.80;;;;;;5084353;28;20118;-68
2021/09/18 05:50:59;;;;;;;41.20;31.67;;;13.70;95.20;;;;;;5078315;28;20402;-68
2021/09/18 05:53:26;;;;;;;37.83;29.75;;;13.70;94.90;;;;;;5063969;28;20124;-68
2021/09/18 05:55:53;;;;;;;42.72;33.03;;;13.70;95.00;;;;;;5063217;28;20049;-68
2021/09/18 05:58:20;;;;;;;45.88;36.00;;;13.70;95.50;;;;;;5073844;28;20098;-69
2021/09/18 06:00:47;;;;;;;51.45;37.15;;;13.70;95.50;;;;;;5074819;28;20373;-68
2021/09/18 06:03:15;;;;;;;54.20;39.55;;;13.70;96.20;;;;;;5059934;28;20135;-69
2021/09/18 06:05:42;;;;;;;49.45;35.60;;;13.80;95.80;;;;;;5056117;28;20454;-69
2021/09/18 06:08:11;;;;;;;43.17;33.72;;;13.90;95.90;;;;;;5059282;28;20052;-69
2021/09/18 06:10:38;;;;;;;49.17;35.20;;;13.90;95.50;;;;;;5060651;28;20488;-69
2021/09/18 06:13:05;;;;;;;47.78;35.40;;;13.90;96.00;;;;;;5088632;28;20040;-69
2021/09/18 06:15:32;;;;;;;44.35;32.70;;;13.90;95.90;;;;;;5082634;28;20059;-69
2021/09/18 06:17:59;;;;;;;52.75;36.00;;;14.00;95.60;;;;;;5059721;28;20128;-68
2021/09/18 06:20:26;;;;;;;49.78;38.08;;;14.00;95.70;;;;;;5073252;28;20048;-69
2021/09/18 06:22:53;;;;;;;45.90;34.63;;;14.10;96.10;;;;;;5084157;28;20527;-69
2021/09/18 06:25:21;;;;;;;43.55;34.53;;;14.20;95.90;;;;;;5083766;28;20053;-69
2021/09/18 06:27:48;;;;;;;42.67;32.50;;;14.30;96.00;;;;;;5078328;28;20437;-69
2021/09/18 06:30:16;;;;;;;43.13;34.95;;;14.30;96.30;;;;;;5085139;28;20102;-70
2021/09/18 06:32:43;;;;;;;42.88;33.60;;;14.40;96.10;;;;;;5043031;28;20063;-69
2021/09/18 06:35:10;;;;;;;42.45;31.88;;;14.50;96.40;;;;;;5060937;28;20052;-68
2021/09/18 06:37:45;;;;;;;43.10;32.63;;;14.60;96.20;;;;;;5034636;28;20048;-69
2021/09/18 06:40:13;;;;;;;43.20;31.30;;;14.70;96.20;;;;;;5076808;28;20163;-69
2021/09/18 06:42:40;;;;;;;41.80;32.95;;;14.70;96.00;;;;;;5061991;28;20841;-69
2021/09/18 06:45:08;;;;;;;39.03;29.73;;;14.80;96.00;;;;;;5092187;28;20044;-68
2021/09/18 06:47:35;;;;;;;41.28;31.90;;;14.90;96.20;;;;;;5071839;28;20541;-68
2021/09/18 06:50:02;;;;;;;42.35;32.55;;;15.00;96.40;;;;;;5064651;28;20464;-68
2021/09/18 06:52:29;;;;;;;40.38;32.72;;;15.10;96.20;;;;;;5072141;28;20044;-68
2021/09/18 06:54:57;;;;;;;45.65;32.03;;;15.20;96.20;;;;;;5044023;28;20098;-68
2021/09/18 06:57:24;;;;;;;33.40;29.67;;;15.30;96.10;;;;;;5058306;28;20378;-68
2021/09/18 06:59:51;;;;;;;43.95;32.30;;;15.40;95.90;;;;;;5071277;28;20045;-68
2021/09/18 07:02:21;;;;;;;36.83;28.63;;;15.50;95.90;;;;;;5073104;28;20395;-70
2021/09/18 07:04:48;;;;;;;35.25;28.95;;;15.60;95.70;;;;;;5082301;28;20433;-69
2021/09/18 07:07:15;;;;;;;36.85;28.60;;;15.70;95.70;;;;;;5057733;28;20098;-69
2021/09/18 07:09:42;;;;;;;36.55;29.63;;;15.80;95.50;;;;;;5073836;28;20056;-69
2021/09/18 07:12:09;;;;;;;30.60;26.48;;;15.90;95.40;;;;;;5067188;28;20086;-69
2021/09/18 07:14:36;;;;;;;32.88;26.50;;;16.00;95.30;;;;;;5070887;28;20136;-69
2021/09/18 07:17:03;;;;;;;30.77;25.75;;;16.10;95.40;;;;;;5076867;28;20060;-69
2021/09/18 07:19:30;;;;;;;31.75;27.23;;;16.20;95.10;;;;;;5059150;28;20102;-69
2021/09/18 07:21:57;;;;;;;30.55;24.15;;;16.30;95.00;;;;;;5069748;28;20123;-69
2021/09/18 07:24:25;;;;;;;31.45;26.17;;;16.40;95.10;;;;;;5053777;28;20052;-69
2021/09/18 07:26:52;;;;;;;27.35;23.08;;;16.40;95.00;;;;;;5034724;28;20045;-69
2021/09/18 07:29:19;;;;;;;27.33;23.38;;;16.50;94.90;;;;;;5047578;28;20185;-69
2021/09/18 07:31:46;;;;;;;26.35;21.90;;;16.50;94.70;;;;;;5078453;28;20479;-69
2021/09/18 07:34:13;;;;;;;26.02;21.13;;;16.60;94.70;;;;;;5083009;28;20044;-69
2021/09/18 07:36:40;;;;;;;25.42;21.02;;;16.60;94.60;;;;;;5071427;28;20048;-70
2021/09/18 07:39:07;;;;;;;23.17;20.70;;;16.70;94.60;;;;;;5053635;28;20056;-69
2021/09/18 07:41:35;;;;;;;26.58;21.20;;;16.70;94.50;;;;;;5053487;28;20056;-70
2021/09/18 07:44:02;;;;;;;26.00;21.13;;;16.80;94.50;;;;;;5070109;28;20451;-70
2021/09/18 07:46:30;;;;;;;29.40;24.02;;;16.80;94.40;;;;;;5039110;28;20091;-69
2021/09/18 07:48:57;;;;;;;31.67;26.60;;;16.90;94.30;;;;;;5061203;28;20399;-69
2021/09/18 07:51:25;;;;;;;30.42;26.70;;;17.00;94.30;;;;;;5040157;28;20454;-70
2021/09/18 07:53:52;;;;;;;25.00;22.27;;;17.00;94.10;;;;;;5053530;28;20055;-70
2021/09/18 07:56:19;;;;;;;23.30;20.05;;;17.10;94.10;;;;;;5055442;28;20417;-69
2021/09/18 07:58:46;;;;;;;25.52;20.58;;;17.20;93.90;;;;;;5070831;28;20040;-66
2021/09/18 08:01:13;;;;;;;22.77;19.70;;;17.20;93.80;;;;;;5084422;28;20049;-64
2021/09/18 08:03:41;;;;;;;22.63;19.50;;;17.30;93.90;;;;;;5075140;28;20093;-69
2021/09/18 08:06:10;;;;;;;19.83;16.25;;;17.50;93.70;;;;;;5085529;28;20056;-69
2021/09/18 08:08:37;;;;;;;18.85;15.52;;;17.50;93.60;;;;;;5069847;28;20480;-69
2021/09/18 08:11:04;;;;;;;17.83;14.07;;;17.60;93.20;;;;;;5082963;28;20059;-70
2021/09/18 08:13:31;;;;;;;14.27;12.73;;;17.70;93.00;;;;;;5083854;28;20040;-70
2021/09/18 08:15:58;;;;;;;12.80;11.45;;;17.80;92.60;;;;;;5070264;28;20131;-69
2021/09/18 08:18:25;;;;;;;13.25;11.73;;;17.90;92.70;;;;;;5070114;28;20044;-70
2021/09/18 08:20:52;;;;;;;13.75;11.00;;;17.90;92.10;;;;;;5071311;28;20051;-70
2021/09/18 08:23:19;;;;;;;12.30;10.40;;;18.00;92.30;;;;;;5069584;28;20486;-70
2021/09/18 08:25:46;;;;;;;10.43;9.13;;;18.10;91.80;;;;;;5056449;28;20131;-70
2021/09/18 08:28:13;;;;;;;10.55;9.43;;;18.30;92.00;;;;;;5070808;28;20074;-70
2021/09/18 08:30:41;;;;;;;10.38;9.35;;;18.30;91.30;;;;;;5057031;28;20045;-70
2021/09/18 08:33:08;;;;;;;9.43;8.38;;;18.50;91.30;;;;;;5070713;28;20099;-70
2021/09/18 08:35:35;;;;;;;11.60;9.77;;;18.60;91.30;;;;;;5062167;28;20202;-69
2021/09/18 08:38:02;;;;;;;9.68;8.55;;;18.70;90.70;;;;;;5069122;28;20116;-69
2021/09/18 08:40:29;;;;;;;11.50;8.48;;;18.80;90.60;;;;;;5064198;28;20040;-70
2021/09/18 08:42:56;;;;;;;12.18;8.55;;;18.90;90.20;;;;;;5062981;28;20044;-68
2021/09/18 08:45:23;;;;;;;8.65;7.18;;;19.00;90.40;;;;;;5049135;28;20063;-69
2021/09/18 08:47:50;;;;;;;8.32;7.53;;;19.20;89.70;;;;;;5071249;28;20074;-69
2021/09/18 08:50:19;;;;;;;7.55;6.47;;;19.30;87.20;;;;;;5058747;28;20052;-69
2021/09/18 08:52:46;;;;;;;11.93;7.50;;;19.40;87.50;;;;;;5063974;28;20105;-70
2021/09/18 08:55:13;;;;;;;7.93;5.38;;;19.50;85.70;;;;;;5064187;28;20075;-69
2021/09/18 08:57:41;;;;;;;6.97;5.85;;;19.60;85.40;;;;;;5069254;28;20047;-69
2021/09/18 09:00:32;;;;;;;7.55;6.43;;;19.60;85.60;;;;;;5070866;28;20882;-70
2021/09/18 09:03:01;;;;;;;5.93;5.32;;;19.60;84.70;;;;;;5082772;28;20048;-69
2021/09/18 09:05:33;;;;;;;6.68;5.25;;;19.60;84.80;;;;;;5063217;28;20484;-70
2021/09/18 09:08:08;;;;;;;6.70;4.93;;;19.70;84.00;;;;;;5061697;28;20046;-70
2021/09/18 09:10:35;;;;;;;5.20;4.70;;;19.80;81.50;;;;;;5073002;28;20412;-69
2021/09/18 09:13:06;;;;;;;5.22;4.72;;;19.80;81.80;;;;;;5073787;28;20054;-69
2021/09/18 09:15:33;;;;;;;8.15;4.50;;;19.70;80.70;;;;;;5058532;28;20127;-69
2021/09/18 09:18:23;;;;;;;6.15;4.95;;;19.70;81.40;;;;;;5062443;28;20094;-69
2021/09/18 09:21:34;;;;;;;11.23;6.28;;;19.70;81.10;;;;;;5077126;28;20445;-68
2021/09/18 09:24:10;;;;;;;5.38;4.40;;;19.80;80.40;;;;;;5010641;28;20136;-69
2021/09/18 09:26:41;;;;;;;7.63;4.93;;;19.90;79.50;;;;;;5001699;28;20101;-71
2021/09/18 09:29:09;;;;;;;6.80;4.18;;;20.00;80.90;;;;;;5024176;28;20179;-69
2021/09/18 09:31:37;;;;;;;5.38;4.43;;;20.10;80.80;;;;;;5077195;28;20052;-69
2021/09/18 09:34:15;;;;;;;8.27;6.27;;;20.20;81.20;;;;;;5043735;28;20128;-72
2021/09/18 09:36:50;;;;;;;7.40;6.10;;;20.20;78.70;;;;;;5039766;28;20127;-71
2021/09/18 09:39:24;;;;;;;4.95;4.20;;;20.20;78.40;;;;;;5058946;28;20048;-70
2021/09/18 09:41:52;;;;;;;14.77;6.25;;;20.30;77.50;;;;;;5036311;28;20136;-70
2021/09/18 09:44:21;;;;;;;24.35;6.50;;;20.40;79.50;;;;;;5046835;28;20059;-70
2021/09/18 09:47:10;;;;;;;8.20;4.93;;;20.50;78.30;;;;;;5072099;28;20044;-70
2021/09/18 09:49:58;;;;;;;5.97;4.00;;;20.50;76.30;;;;;;5074349;28;20080;-70
2021/09/18 09:52:26;;;;;;;4.70;3.78;;;20.60;75.70;;;;;;5072104;28;20048;-70
2021/09/18 09:54:59;;;;;;;7.32;4.00;;;20.60;77.90;;;;;;5055355;28;20036;-70
2021/09/18 09:57:27;;;;;;;4.47;3.75;;;20.70;75.20;;;;;;5062310;28;20426;-71
2021/09/18 10:00:03;;;;;;;5.43;4.03;;;20.70;76.90;;;;;;5072769;28;20062;-70
2021/09/18 10:02:30;;;;;;;9.55;3.90;;;20.80;75.20;;;;;;5063966;28;20052;-72
2021/09/18 10:04:58;;;;;;;7.85;3.70;;;20.80;77.50;;;;;;5079805;28;20071;-72
2021/09/18 10:07:25;;;;;;;6.10;4.10;;;20.90;76.40;;;;;;5059699;28;20147;-70
2021/09/18 10:09:52;;;;;;;6.18;3.88;;;20.90;75.00;;;;;;5043546;28;20128;-70
2021/09/18 10:12:19;;;;;;;4.68;3.58;;;20.90;74.40;;;;;;5073683;28;20036;-70
2021/09/18 10:14:47;;;;;;;5.00;3.60;;;20.90;73.30;;;;;;5063312;28;20080;-71
2021/09/18 10:17:15;;;;;;;5.68;3.50;;;21.00;74.90;;;;;;5054800;28;20506;-73
2021/09/18 10:20:00;;;;;;;5.43;3.67;;;21.00;73.50;;;;;;5055858;28;20498;-68
2021/09/18 10:25:16;;;;;;;6.63;4.50;;;21.10;73.90;;;;;;5066299;28;20059;-71
2021/09/18 10:28:23;;;;;;;10.68;4.55;;;21.20;72.60;;;;;;5049210;28;20063;-68
2021/09/18 10:30:55;;;;;;;7.22;4.30;;;21.30;72.50;;;;;;5055039;28;20049;-68
2021/09/18 10:33:33;;;;;;;9.18;5.03;;;21.30;74.20;;;;;;5065701;28;20094;-71
2021/09/18 10:36:09;;;;;;;6.03;4.35;;;21.40;72.10;;;;;;5050000;28;20209;-72
2021/09/18 10:38:41;;;;;;;6.28;4.07;;;21.30;70.90;;;;;;5061884;28;20131;-70
2021/09/18 10:41:20;;;;;;;4.38;3.50;;;21.40;69.90;;;;;;5047919;28;20143;-72
2021/09/18 10:44:00;;;;;;;6.22;4.25;;;21.40;67.70;;;;;;5049053;28;20382;-71
2021/09/18 10:46:46;;;;;;;6.45;4.10;;;21.50;71.50;;;;;;5061759;28;20128;-70
2021/09/18 10:49:32;;;;;;;14.10;11.82;;;21.50;69.20;;;;;;5054684;28;20049;-70
2021/09/18 10:52:21;;;;;;;6.07;5.05;;;21.60;69.50;;;;;;5056323;28;20105;-71
2021/09/18 10:55:05;;;;;;;7.95;5.43;;;21.70;68.90;;;;;;5066249;28;20044;-71
2021/09/18 10:57:55;;;;;;;8.40;4.97;;;21.70;67.90;;;;;;5070119;28;20080;-70
2021/09/18 11:00:26;;;;;;;13.32;10.07;;;21.80;70.20;;;;;;5066083;28;20041;-69
2021/09/18 11:02:57;;;;;;;7.65;6.63;;;21.90;70.10;;;;;;5060343;28;20081;-73
2021/09/18 11:05:28;;;;;;;8.25;5.00;;;22.00;70.60;;;;;;5045561;28;20052;-70
2021/09/18 11:08:02;;;;;;;6.50;4.68;;;22.00;66.60;;;;;;5070442;28;20094;-68
2021/09/18 11:10:29;;;;;;;6.00;4.75;;;22.00;66.70;;;;;;5052087;28;20045;-71
2021/09/18 11:13:09;;;;;;;5.88;4.60;;;22.10;70.50;;;;;;5060820;28;20380;-75
2021/09/18 11:15:57;;;;;;;5.80;3.92;;;22.20;67.30;;;;;;5061563;28;20071;-73
2021/09/18 11:18:29;;;;;;;5.20;4.07;;;22.30;65.40;;;;;;5054540;28;20121;-73
2021/09/18 11:21:18;;;;;;;6.00;3.80;;;22.30;67.50;;;;;;5054387;28;20132;-71
2021/09/18 11:23:59;;;;;;;8.95;5.72;;;22.40;66.80;;;;;;5048065;28;20048;-70
2021/09/18 11:26:38;;;;;;;5.40;3.95;;;22.60;67.60;;;;;;5051955;28;20056;-70
2021/09/18 11:29:19;;;;;;;5.28;3.90;;;22.70;68.90;;;;;;5068414;28;20135;-71
2021/09/18 11:32:05;;;;;;;8.07;4.10;;;22.80;65.60;;;;;;5053654;28;20450;-64
2021/09/18 11:34:40;;;;;;;7.05;5.60;;;22.80;64.90;;;;;;5070117;28;20055;-64
2021/09/18 11:37:18;;;;;;;4.80;4.30;;;22.80;66.00;;;;;;5038805;28;20048;-64
2021/09/18 11:40:01;;;;;;;4.27;3.63;;;22.90;66.80;;;;;;5072704;28;20044;-65
2021/09/18 11:42:32;;;;;;;4.20;3.60;;;22.90;65.70;;;;;;5070116;28;20075;-64
2021/09/18 11:45:29;;;;;;;4.07;2.80;;;23.00;63.70;;;;;;5054741;28;20662;-64
2021/09/18 11:47:57;;;;;;;4.32;3.70;;;22.80;62.70;;;;;;5053798;28;20083;-65
2021/09/18 11:50:29;;;;;;;5.15;3.50;;;22.80;65.20;;;;;;5052103;28;20048;-66
2021/09/18 11:53:07;;;;;;;8.27;3.97;;;22.70;63.90;;;;;;5052777;28;20059;-68
2021/09/18 11:55:42;;;;;;;5.15;3.72;;;22.80;62.10;;;;;;5058752;28;20135;-72
2021/09/18 11:58:23;;;;;;;4.05;3.28;;;22.70;64.10;;;;;;5062772;28;20049;-70
2021/09/18 12:00:52;;;;;;;3.67;2.92;;;22.70;63.00;;;;;;5069253;28;20045;-72
2021/09/18 12:03:27;;;;;;;4.60;3.63;;;22.60;62.80;;;;;;5069574;28;20052;-72
2021/09/18 12:05:59;;;;;;;7.68;5.32;;;22.50;62.90;;;;;;5073518;28;20048;-69
2021/09/18 12:08:30;;;;;;;7.95;3.65;;;22.50;65.10;;;;;;5052034;28;20048;-70
2021/09/18 12:11:18;;;;;;;4.43;3.35;;;22.40;63.90;;;;;;5051927;28;20381;-70
2021/09/18 12:13:46;;;;;;;5.55;3.78;;;22.50;64.90;;;;;;5049387;28;20056;-69
2021/09/18 12:16:14;;;;;;;5.75;4.00;;;22.70;64.30;;;;;;5060984;28;20048;-68
2021/09/18 12:18:43;;;;;;;7.95;3.40;;;22.70;64.80;;;;;;5081985;28;20056;-69
2021/09/18 12:21:15;;;;;;;5.57;3.33;;;22.80;64.10;;;;;;5065445;28;20048;-72
2021/09/18 12:23:43;;;;;;;4.30;3.05;;;22.90;66.00;;;;;;5074397;28;20139;-67
2021/09/18 12:26:10;;;;;;;3.50;3.20;;;23.00;64.40;;;;;;5066960;28;20044;-70
2021/09/18 12:28:38;;;;;;;3.45;2.88;;;23.10;63.30;;;;;;5056907;28;20056;-70
2021/09/18 12:31:18;;;;;;;11.00;9.57;;;23.10;64.10;;;;;;5070236;28;20053;-66
2021/09/18 12:33:46;;;;;;;5.82;4.47;;;23.20;61.40;;;;;;5049030;28;20488;-68
2021/09/18 12:36:15;;;;;;;4.75;4.00;;;23.20;63.50;;;;;;5052026;28;20178;-69
2021/09/18 12:38:42;;;;;;;5.00;3.28;;;23.30;63.50;;;;;;5051895;28;20047;-68
2021/09/18 12:42:02;;;;;;;5.30;4.60;;;23.30;62.70;;;;;;5052814;28;20136;-70
2021/09/18 12:44:33;;;;;;;5.47;3.45;;;23.30;61.60;;;;;;5047870;28;20045;-67
2021/09/18 12:47:00;;;;;;;3.80;3.35;;;23.30;62.90;;;;;;5060652;28;20040;-67
2021/09/18 12:49:32;;;;;;;4.97;3.05;;;23.20;63.90;;;;;;5059890;28;20103;-68